Terminal Aerodrome Forecast
Issued by NWS Albuquerque, NM

Home | Current Version | Previous Version | Text Only | Print | Product List | Glossary On
Versions: 1 2 3 4 5 6 7 8 9 10 11 12 13 14 15 16 17
489
FTUS45 KABQ 280523
TAFABQ
TAF
KABQ 280523Z 2806/0106 27007KT P6SM OVC080
     FM280800 19014KT P6SM OVC070
     FM281600 20016G24KT P6SM OVC070
     FM281900 27027G37KT P6SM VCSH OVC060
      TEMPO 2820/2824 6SM -RASN OVC035
     FM010100 30015KT P6SM BKN060=

USA.gov is the U.S. government's official web portal to all federal, state and local government web resources and services.